Tiempo atmosférico en la estación meteorológica de Orihuela, Alacant/Alicante (26 m.)



Fecha
DESCASC
Temp. máxima en grados centígrados (hora)
DESCASC
Temp. mínima en grados centígrados (hora)
DESCASC
Temp. media en grados centígrados
DESCASC
Racha de viento máxima en m/sg (hora)
DESCASC
Velocidad máxima media en intervalos de 10 minutos(hora)
DESCASC
Precipitaciones diarias en mm
DESCASC
Precipitaciones de 00:00 a 06:00 en mm
DESCASC
Precipitaciones de 06:00 a 12:00 en mm
DESCASC
Precipitaciones de 12:00 a 18:00 en mm
DESCASC
Precipitaciones de 18:00 a 24:00 en mm
DESCASC
22-04-2019 18.9 (16:00) 11.9 (03:30) 15.4 7.78 (08:10) 5.28 (07:30) 0.6 0.6 0 0 0
21-04-2019 17 (13:20) 12.6 (06:00) 14.8 5.83 (22:20) 3.33 (22:10) 5.6 0 1.2 3 1.4
20-04-2019 14.9 (15:50) 11.6 (02:10) 13.3 17.78 (10:00) 9.44 (06:30) 57 42.6 12.8 1.6 0
19-04-2019 14.3 (13:30) 12.4 (23:59) 13.3 6.67 (23:40) 3.61 (23:20) 38 7 9.6 4.2 17.2
18-04-2019 18.7 (14:10) 13.5 (00:00) 16.1 13.61 (15:50) 6.67 (15:10) 0 0 0 0 0
17-04-2019 20.4 (14:50) 14.5 (00:00) 17.4 10.28 (15:00) 6.11 (15:30) 0 0 0 0 0
16-04-2019 25.1 (13:40) 12.1 (00:00) 18.6 11.11 (14:10) 6.39 (14:30) 0 0 0 0 0
15-04-2019 22.6 (15:20) 13.6 (00:00) 18.1 10 (12:30) 5.83 (11:50) 0 0 0 0 0
14-04-2019 29.8 (16:50) 8.9 (00:00) 19.3 8.89 (13:10) 5 (12:10) 0 0 0 0 0
13-04-2019 25.6 (15:50) 8.3 (00:00) 17 9.72 (18:10) 4.72 (16:10) 0 0 0 0 0
12-04-2019 23.7 (16:40) 10.1 (00:00) 16.9 11.11 (11:30) 5.56 (17:40) 0 0 0 0 0
11-04-2019 22.6 (17:50) 9.3 (00:00) 16 10.83 (12:30) 5.28 (19:10) 0 0 0 0 0
10-04-2019 20.3 (17:20) 9.5 (00:00) 14.9 17.22 (18:20) 8.89 (18:00) 0.6 0 0 0 0.6
09-04-2019 22.6 (17:20) 12 (00:00) 17.3 16.67 (02:10) 8.61 (02:20) 0 0 0 0 0
08-04-2019 23.8 (17:20) 12.2 (00:00) 18 8.33 (18:30) 4.72 (14:20) 0 0 0 0 0
07-04-2019 20.5 (17:50) 8.1 (00:00) 14.3 17.5 (10:20) 9.17 (10:20) 0 0 0 0 0
06-04-2019 18.4 (14:20) 6.4 (00:00) 12.4 13.33 (15:00) 6.11 (15:00) 6 0 0 6 0
05-04-2019 20.5 (15:00) 10.2 (00:00) 15.3 13.33 (21:20) 6.39 (21:20) 1.4 0 0 1.2 0.2
04-04-2019 19.8 (14:30) 9.3 (00:00) 14.5 8.61 (15:10) 4.44 (02:30) 0 0 0 0 0
03-04-2019 24.7 (15:20) 10.2 (00:00) 17.5 7.78 (14:50) 3.61 (16:00) 0 0 0 0 0
02-04-2019 23.8 (16:30) 12.1 (00:00) 17.9 6.11 (13:40) 3.33 (13:40) 0 0 0 0 0
01-04-2019 18.9 (14:40) 12.5 (00:00) 15.7 7.5 (16:20) 4.44 (15:00) 0.2 0 0 0.2 0
31-03-2019 13.3 (19:10) 10.6 (00:00) 12 6.94 (10:10) 4.44 (10:10) 16 0.4 7.2 7.8 0.6
30-03-2019 18 (14:00) 6.1 (00:00) 12 10 (12:50) 5.28 (15:10) 0 0 0 0 0
29-03-2019 17.5 (13:20) 5.4 (00:00) 11.5 10.56 (12:40) 5.83 (13:10) 0 0 0 0 0
28-03-2019 19.1 (13:00) 3.4 (00:00) 11.3 9.17 (12:50) 5.56 (15:50) 0 0 0 0 0
27-03-2019 18.6 (14:20) 5.4 (00:00) 12 11.94 (12:50) 6.67 (12:40) 0 0 0 0 0
26-03-2019 18.8 (12:50) 4.3 (00:00) 11.5 13.89 (12:10) 7.5 (11:40) 0 0 0 0 0
25-03-2019 22.8 (14:50) 5.9 (00:00) 14.3 7.78 (16:00) 5.28 (16:00) 0 0 0 0 0

Gráficas

Temp. máximas Temp. mínimas Temp. medias Precipitaciones Rachas de viento máximas Velocidades máximas media en intervalos de 10 minutos

Datos horarios

Fecha y hora oficial Temperatura (ºC) Velocidad del viento (km/h) Dirección del viento Racha (km/h) Dirección de racha Precipitación (mm) Presión (hPa) Tendencia (hPa) Humedad (%)
2019-04-23 23:00:00 15.5 11 Oeste 37 Oeste 0 -- -- 48
2019-04-23 22:00:00 16.2 12 Oeste 30 Oeste 0 -- -- 47
2019-04-23 21:00:00 15.8 3 Oeste 12 Oeste 0 -- -- 73
2019-04-23 20:00:00 17.6 3 Noroeste 18 Sudoeste 0 -- -- 67
2019-04-23 19:00:00 17.7 3 Sudoeste 22 Sudeste 0 -- -- 65
2019-04-23 18:00:00 19.3 9 Sur 21 Sur 0 -- -- 62
2019-04-23 17:00:00 17.3 9 Sudoeste 17 Sudoeste 0 -- -- 68
2019-04-23 16:00:00 16.6 6 Sudoeste 31 Oeste 0.4 -- -- 70
2019-04-23 15:00:00 20.1 16 Oeste 41 Oeste 0 -- -- 53
2019-04-23 14:00:00 21.3 5 Noroeste 10 Oeste 0 -- -- 46
2019-04-23 13:00:00 20.7 4 Oeste 10 Sudoeste 0 -- -- 46
2019-04-23 12:00:00 19.8 4 Sudoeste 12 Sudoeste 0 -- -- 51
2019-04-23 11:00:00 17.8 6 Sudoeste 13 Oeste 0 -- -- 61
2019-04-23 10:00:00 15.3 3 Sudoeste 8 Sudoeste 0 -- -- 79
2019-04-23 09:00:00 12.4 4 Oeste 7 Oeste 0 -- -- 89
2019-04-23 08:00:00 12.1 4 Oeste 9 Oeste 0 -- -- 90
2019-04-23 07:00:00 11.8 4 Sudoeste 6 Oeste 0 -- -- 90
2019-04-23 06:00:00 12.5 2 Oeste 7 Oeste 0 -- -- 88
2019-04-23 05:00:00 12.5 3 Oeste 6 Oeste 0 -- -- 89
2019-04-23 04:00:00 12.4 3 Oeste 5 Sur 0 -- -- 88
2019-04-23 03:00:00 12.4 0 Calma 6 Sudoeste 0 -- -- 87
2019-04-23 02:00:00 12.7 3 Sudoeste 8 Oeste 0 -- -- 86
2019-04-23 01:00:00 13.8 0 Calma 10 Sudoeste 0 -- -- 80
2019-04-23 00:00:00 14.6 3 Oeste 6 Sudoeste 0 -- -- 79
2019-04-22 23:00:00 15.6 2 Sudoeste 5 Noroeste 0 -- -- 77
2019-04-22 22:00:00 16.1 0 Calma 6 Sudeste 0 -- -- 75
2019-04-22 21:00:00 16.6 0 Calma 6 Sudoeste 0 -- -- 71
2019-04-22 20:00:00 17.5 0 Calma 10 Sudoeste 0 -- -- 65
2019-04-22 19:00:00 18.1 5 Oeste 25 Oeste 0 -- -- 60
2019-04-22 18:00:00 18.5 14 Oeste 28 Oeste 0 -- -- 56
2019-04-22 17:00:00 18.8 14 Oeste 27 Oeste 0 -- -- 53
2019-04-22 16:00:00 18.9 6 Oeste 22 Oeste 0 -- -- 57
2019-04-22 15:00:00 18.3 8 Oeste 15 Sudoeste 0 -- -- 56
2019-04-22 14:00:00 17.4 6 Sudoeste 20 Oeste 0 -- -- 59
2019-04-22 13:00:00 16.9 4 Oeste 19 Noroeste 0 -- -- 63
2019-04-22 12:00:00 15.6 5 Sudoeste 19 Sudoeste 0 -- -- 68
2019-04-22 11:00:00 13.7 7 Sudoeste 14 Sudoeste 0 -- -- 80
2019-04-22 10:00:00 13.1 10 Sudoeste 19 Sudoeste 0 -- -- 80
2019-04-22 09:00:00 12.8 8 Sudoeste 28 Sudoeste 0 -- -- 82
2019-04-22 08:00:00 12.5 18 Sudoeste 27 Sudoeste 0 -- -- 83
2019-04-22 07:00:00 12.5 14 Sudoeste 26 Sudoeste 0 -- -- 83
2019-04-22 06:00:00 12.6 15 Sudoeste 25 Sudoeste 0 -- -- 82
2019-04-22 05:00:00 12.1 14 Sudoeste 24 Sudoeste 0 -- -- 85
2019-04-22 04:00:00 12.1 12 Sudoeste 21 Oeste 0 -- -- 84
2019-04-22 03:00:00 12.1 15 Sudoeste 24 Sudoeste 0 -- -- 83
2019-04-22 02:00:00 12.9 14 Sudoeste 28 Sudoeste 0 -- -- 82
2019-04-22 01:00:00 13.1 13 Sudoeste 24 Sudoeste 0.6 -- -- 83
2019-04-22 00:00:00 12.6 8 Sudoeste 15 Sudoeste 0.2 -- -- 88
2019-04-21 23:00:00 13 6 Sudoeste 21 Sudoeste 0.4 -- -- 86
2019-04-21 22:00:00 13.1 11 Sudoeste 19 Sudoeste 0 -- -- 84
2019-04-21 21:00:00 13.1 10 Oeste 16 Oeste 0.2 -- -- 84
2019-04-21 20:00:00 13.6 5 Oeste 14 Sudoeste 0.4 -- -- 88
2019-04-21 19:00:00 14 6 Sudoeste 15 Sudoeste 0.2 -- -- 86
2019-04-21 18:00:00 14.3 4 Oeste 16 Sudoeste 0.8 -- -- 82
2019-04-21 17:00:00 14.4 3 Norte 8 Noroeste 1.4 -- -- 84
2019-04-21 16:00:00 15.2 5 Norte 9 Norte 0.8 -- -- 80
2019-04-21 15:00:00 15.6 3 Sudeste 10 Este 0 -- -- 81
2019-04-21 14:00:00 16.5 6 Este 13 Este 0 -- -- 74
2019-04-21 13:00:00 16.6 2 Noroeste 8 Sudoeste 0 -- -- 68
2019-04-21 12:00:00 15.8 5 Noroeste 12 Oeste 0 -- -- 71
2019-04-21 11:00:00 14.4 4 Sudoeste 13 Oeste 0.2 -- -- 81
2019-04-21 10:00:00 13.1 5 Sudoeste 8 Sudoeste 0.6 -- -- 90
2019-04-21 09:00:00 12.6 0 Calma 6 Sudoeste 0.4 -- -- 89
2019-04-21 08:00:00 12.7 3 Sur 14 Nordeste 0 -- -- 87
2019-04-21 07:00:00 12.6 3 Sudeste 6 Sur 0 -- -- 91
2019-04-21 06:00:00 12.6 0 Calma 8 Sudeste 0 -- -- 92
2019-04-21 05:00:00 13.1 3 Sudeste 6 Oeste 0 -- -- 92
2019-04-21 04:00:00 13.2 4 Oeste 9 Sudoeste 0 -- -- 92
2019-04-21 03:00:00 13.2 3 Oeste 9 Sudeste 0 -- -- 93
2019-04-21 02:00:00 13.3 3 Norte 5 Norte 0 -- -- 92
2019-04-21 01:00:00 13.7 0 Calma 4 Sudoeste 0 -- -- 91
2019-04-21 00:00:00 13.9 3 Sudoeste 7 Oeste 0 -- -- 91
2019-04-20 23:00:00 13.9 3 Oeste 9 Oeste 0 -- -- 92
2019-04-20 22:00:00 14 5 Oeste 10 Oeste 0 -- -- 92
2019-04-20 21:00:00 14.2 0 Calma 5 Sudoeste 0 -- -- 91
2019-04-20 20:00:00 14.3 0 Calma 8 Sudoeste 0 -- -- 90
2019-04-20 19:00:00 14.4 3 Sudoeste 12 Sudoeste 0 -- -- 89
2019-04-20 18:00:00 14.7 2 Sudeste 17 Este 0 -- -- 89
2019-04-20 17:00:00 14.4 11 Este 28 Nordeste 0.2 -- -- 90
2019-04-20 16:00:00 14.9 21 Nordeste 51 Nordeste 0 -- -- 80
2019-04-20 15:00:00 14.7 24 Nordeste 50 Nordeste 0 -- -- 81
2019-04-20 14:00:00 14.3 17 Norte 47 Nordeste 0.6 -- -- 85
2019-04-20 13:00:00 14.6 17 Nordeste 49 Nordeste 0.8 -- -- 87
2019-04-20 12:00:00 14.3 23 Nordeste 47 Norte 0.4 -- -- 86
2019-04-20 11:00:00 14.5 18 Nordeste 46 Nordeste 0.2 -- -- 87
2019-04-20 10:00:00 14.1 25 Nordeste 64 Nordeste 0.8 -- -- 89
2019-04-20 09:00:00 13.8 22 Nordeste 42 Este 3.4 -- -- 91
2019-04-20 08:00:00 13.9 21 Nordeste 46 Nordeste 5.6 -- -- 90
2019-04-20 07:00:00 14 19 Este 60 Nordeste 2.4 -- -- 89
2019-04-20 06:00:00 14.2 30 Nordeste 56 Nordeste 2.6 -- -- 88
2019-04-20 05:00:00 14.2 20 Nordeste 41 Nordeste 11 -- -- 93
2019-04-20 04:00:00 11.8 8 Oeste 40 Oeste 2.8 -- -- 93
2019-04-20 03:00:00 11.8 10 Sudoeste 28 Sudoeste 10.8 -- -- 93
2019-04-20 02:00:00 11.7 13 Sudoeste 27 Sudoeste 6.6 -- -- 93
2019-04-20 01:00:00 11.9 14 Sudoeste 24 Sudoeste 8.8 -- -- 93
2019-04-20 00:00:00 12.4 12 Sudoeste 24 Oeste 8.8 -- -- 91
2019-04-19 23:00:00 12.7 8 Sudoeste 16 Sudoeste 6.4 -- -- 90
2019-04-19 22:00:00 13.1 3 Sudoeste 10 Sudeste 1.4 -- -- 90
2019-04-19 21:00:00 13.2 3 Este 9 Sur 0.2 -- -- 89
2019-04-19 20:00:00 13.4 3 Sudeste 6 Sudeste 0 -- -- 90
2019-04-19 19:00:00 13.3 3 Oeste 7 Oeste 0.4 -- -- 88
2019-04-19 18:00:00 13.6 0 Calma 14 Norte 0.2 -- -- 90
2019-04-19 17:00:00 13.4 5 Nordeste 11 Nordeste 0.6 -- -- 89
2019-04-19 16:00:00 13.6 2 Oeste 8 Sudoeste 1.2 -- -- 88
2019-04-19 15:00:00 14 0 Calma 7 Oeste 1.4 -- -- 88
2019-04-19 14:00:00 14 5 Oeste 9 Sudoeste 0.4 -- -- 86
2019-04-19 13:00:00 14.1 3 Sudoeste 6 Oeste 0.4 -- -- 89
2019-04-19 12:00:00 14 3 Sudoeste 5 Sudoeste 1 -- -- 91
2019-04-19 11:00:00 13.7 3 Sudeste 8 Nordeste 1.2 -- -- 93
2019-04-19 10:00:00 13.7 4 Nordeste 9 Nordeste 1.6 -- -- 93
2019-04-19 09:00:00 13.5 4 Norte 10 Nordeste 2.2 -- -- 93
2019-04-19 08:00:00 13.4 5 Nordeste 9 Nordeste 1.2 -- -- 93
2019-04-19 07:00:00 12.9 3 Nordeste 9 Nordeste 2.4 -- -- 91
2019-04-19 06:00:00 12.9 3 Nordeste 8 Sudoeste 3.8 -- -- 90
2019-04-19 05:00:00 13.1 3 Este 10 Este 3.2 -- -- 88
2019-04-19 04:00:00 12.9 3 Norte 9 Sudeste 0 -- -- 86
2019-04-19 03:00:00 12.9 0 Calma 5 Norte 0 -- -- 84
2019-04-19 02:00:00 13.3 2 Sudeste 5 Sudoeste 0 -- -- 82
2019-04-19 01:00:00 13.6 2 Este 5 Nordeste 0 -- -- 80
2019-04-19 00:00:00 13.6 3 Norte 6 Norte 0 -- -- 80
2019-04-18 23:00:00 13.7 0 Calma 7 Nordeste 0 -- -- 80
2019-04-18 22:00:00 14.3 3 Sudeste 11 Oeste 0 -- -- 77
2019-04-18 21:00:00 14.8 2 Sur 21 Sudoeste 0 -- -- 74
2019-04-18 20:00:00 14.8 10 Oeste 25 Sudoeste 0 -- -- 75
2019-04-18 19:00:00 15 6 Este 15 Nordeste 0 -- -- 73
2019-04-18 18:00:00 15.5 10 Sudoeste 33 Sudoeste 0 -- -- 68
2019-04-18 17:00:00 16.3 13 Sudoeste 45 Oeste 0 -- -- 59
2019-04-18 16:00:00 15.9 23 Oeste 49 Oeste 0 -- -- 57
2019-04-18 15:00:00 17.5 21 Oeste 45 Oeste 0 -- -- 57
2019-04-18 14:00:00 18.6 10 Oeste 23 Oeste 0 -- -- 55
2019-04-18 13:00:00 18.3 9 Oeste 18 Sudoeste 0 -- -- 58
2019-04-18 12:00:00 17.7 6 Sudoeste 15 Noroeste 0 -- -- 59
2019-04-18 11:00:00 17.1 8 Noroeste 15 Noroeste 0 -- -- 59
2019-04-18 10:00:00 16.2 4 Sudoeste 8 Sudoeste 0 -- -- 68
2019-04-18 09:00:00 15.5 0 Calma 6 Sudoeste 0 -- -- 69
2019-04-18 08:00:00 15.5 2 Sudoeste 11 Sudoeste 0 -- -- 69
2019-04-18 07:00:00 15.4 5 Sudoeste 10 Sudoeste 0 -- -- 68
2019-04-18 06:00:00 14.9 3 Sudoeste 15 Sudeste 0 -- -- 71
2019-04-18 05:00:00 15.7 7 Este 25 Norte 0 -- -- 65
2019-04-18 04:00:00 15.8 5 Este 13 Oeste 0 -- -- 68
2019-04-18 03:00:00 16.3 5 Sudoeste 17 Oeste 0 -- -- 64
2019-04-18 02:00:00 15 8 Sudoeste 19 Sudoeste 0 -- -- 76
2019-04-18 01:00:00 15 2 Sur 19 Sudoeste 0 -- -- 77
2019-04-18 00:00:00 15 4 Oeste 9 Sudoeste 0 -- -- 78
2019-04-17 23:00:00 15.4 5 Este 15 Nordeste 0 -- -- 76
2019-04-17 22:00:00 15.5 8 Este 23 Nordeste 0 -- -- 76
2019-04-17 21:00:00 15.9 13 Nordeste 33 Este 0 -- -- 76
2019-04-17 20:00:00 16.6 18 Nordeste 36 Este 0 -- -- 73
2019-04-17 19:00:00 17.3 21 Este 36 Este 0 -- -- 69
2019-04-17 18:00:00 18.3 19 Este 35 Este 0 -- -- 64
2019-04-17 17:00:00 19.5 17 Este 32 Este 0 -- -- 59
2019-04-17 16:00:00 20 19 Este 35 Sudeste 0 -- -- 56
2019-04-17 15:00:00 20.4 19 Este 37 Este 0 -- -- 52
2019-04-17 14:00:00 20.2 21 Este 33 Este 0 -- -- 50
2019-04-17 13:00:00 20 18 Este 31 Este 0 -- -- 46
2019-04-17 12:00:00 19.4 12 Este 22 Este 0 -- -- 55
2019-04-17 11:00:00 17.5 14 Este 23 Este 0 -- -- 63
2019-04-17 10:00:00 17.1 11 Nordeste 21 Este 0 -- -- 67
2019-04-17 09:00:00 16.2 4 Nordeste 10 Nordeste 0 -- -- 75
2019-04-17 08:00:00 15.2 3 Nordeste 10 Este 0 -- -- 81
2019-04-17 07:00:00 15.1 5 Nordeste 9 Nordeste 0 -- -- 80
2019-04-17 06:00:00 15.3 6 Nordeste 15 Nordeste 0 -- -- 78
2019-04-17 05:00:00 15.5 9 Este 19 Nordeste 0 -- -- 76
2019-04-17 04:00:00 15.4 10 Nordeste 19 Este 0 -- -- 78
2019-04-17 03:00:00 15.5 11 Nordeste 22 Nordeste 0 -- -- 81
2019-04-17 02:00:00 15.5 10 Nordeste 18 Nordeste 0 -- -- 83
2019-04-17 01:00:00 14.7 5 Este 11 Nordeste 0 -- -- 85
2019-04-17 00:00:00 14.6 4 Este 9 Sudeste 0 -- -- 85
2019-04-16 23:00:00 15 6 Este 14 Este 0 -- -- 85
2019-04-16 22:00:00 15.7 9 Este 17 Este 0 -- -- 83
2019-04-16 21:00:00 16.5 11 Nordeste 25 Este 0 -- -- 78
2019-04-16 20:00:00 18.1 15 Este 27 Este 0 -- -- 69
2019-04-16 19:00:00 19.6 15 Este 32 Este 0 -- -- 56
2019-04-16 18:00:00 20.3 16 Este 34 Este 0 -- -- 55
2019-04-16 17:00:00 20 18 Este 33 Este 0 -- -- 61
2019-04-16 16:00:00 19.9 21 Nordeste 36 Este 0 -- -- 64
2019-04-16 15:00:00 21.8 22 Este 40 Este 0 -- -- 58
2019-04-16 14:00:00 23.9 19 Este 37 Este 0 -- -- 42
2019-04-16 13:00:00 23.7 4 Noroeste 17 Oeste 0 -- -- 31
2019-04-16 12:00:00 22.4 6 Noroeste 19 Sudoeste 0 -- -- 38
2019-04-16 11:00:00 20.6 10 Sudoeste 20 Sudoeste 0 -- -- 45
2019-04-16 10:00:00 19.3 9 Oeste 22 Oeste 0 -- -- 51
2019-04-16 09:00:00 15.3 8 Oeste 16 Sudoeste 0 -- -- 75
2019-04-16 08:00:00 12.6 4 Noroeste 10 Sudoeste 0 -- -- 89
2019-04-16 07:00:00 13.4 4 Oeste 11 Oeste 0 -- -- 89
2019-04-16 06:00:00 12.1 5 Oeste 10 Sudoeste 0 -- -- 89
2019-04-16 05:00:00 12.7 4 Sudoeste 9 Sudoeste 0 -- -- 90
2019-04-16 04:00:00 13.2 2 Sur 6 Sudoeste 0 -- -- 87
2019-04-16 03:00:00 13.8 4 Sudoeste 6 Sudoeste 0 -- -- 88
2019-04-16 02:00:00 14.1 3 Sudoeste 5 Sudoeste 0 -- -- 88
2019-04-16 01:00:00 14.7 2 Sudoeste 5 Sudeste 0 -- -- 86
2019-04-16 00:00:00 15.4 3 Sudeste 11 Este 0 -- -- 84
2019-04-15 23:00:00 15.7 3 Nordeste 14 Este 0 -- -- 84
2019-04-15 22:00:00 16.3 8 Nordeste 13 Nordeste 0 -- -- 82
2019-04-15 21:00:00 17.1 7 Nordeste 20 Este 0 -- -- 76
2019-04-15 20:00:00 18.7 12 Este 25 Este 0 -- -- 68
2019-04-15 19:00:00 20 15 Este 25 Este 0 -- -- 57
2019-04-15 18:00:00 20.6 13 Este 28 Nordeste 0 -- -- 51
2019-04-15 17:00:00 21.1 14 Este 29 Este 0 -- -- 53
2019-04-15 16:00:00 21.9 17 Nordeste 32 Nordeste 0 -- -- 52
2019-04-15 15:00:00 22.2 18 Este 28 Este 0 -- -- 51
2019-04-15 14:00:00 21.6 14 Nordeste 31 Este 0 -- -- 54
2019-04-15 13:00:00 20.6 18 Este 36 Este 0 -- -- 63
2019-04-15 12:00:00 19.8 16 Este 35 Este 0 -- -- 68
2019-04-15 11:00:00 20 19 Nordeste 35 Nordeste 0 -- -- 67
2019-04-15 10:00:00 19.1 9 Este 20 Nordeste 0 -- -- 57
2019-04-15 09:00:00 15.4 7 Este 10 Nordeste 0 -- -- 66
2019-04-15 08:00:00 13.6 2 Norte 6 Sudoeste 0 -- -- 70
2019-04-15 07:00:00 13.8 3 Sudoeste 4 Sudoeste 0 -- -- 69
2019-04-15 06:00:00 14.8 0 Calma 9 Sudoeste 0 -- -- 65
2019-04-15 05:00:00 14.2 3 Oeste 5 Oeste 0 -- -- 66
2019-04-15 04:00:00 14.9 0 Calma 5 Sudoeste 0 -- -- 63
2019-04-15 03:00:00 15.1 2 Oeste 6 Oeste 0 -- -- 60
2019-04-15 02:00:00 16.1 4 Sudeste 9 Sur 0 -- -- 55
2019-04-15 01:00:00 17.3 0 Calma 9 Oeste 0 -- -- 49
2019-04-15 00:00:00 16.7 2 Noroeste 5 Oeste 0 -- -- 53
2019-04-14 23:00:00 18.8 3 Sudoeste 8 Sudoeste 0 -- -- 44
2019-04-14 22:00:00 20.5 0 Calma 4 Sur 0 -- -- 40
2019-04-14 21:00:00 22.8 4 Oeste 11 Sudoeste 0 -- -- 32
2019-04-14 20:00:00 25.8 4 Sudoeste 23 Sudeste 0 -- -- 26
2019-04-14 19:00:00 27 7 Sur 22 Sudeste 0 -- -- 25
2019-04-14 18:00:00 28.5 8 Sur 31 Sudeste 0 -- -- 23
2019-04-14 17:00:00 29.6 7 Sur 21 Sudeste 0 -- -- 22
2019-04-14 16:00:00 28.7 10 Oeste 24 Sudoeste 0 -- -- 21
2019-04-14 15:00:00 28.2 10 Oeste 23 Sudoeste 0 -- -- 23
2019-04-14 14:00:00 27.3 9 Oeste 32 Oeste 0 -- -- 24
2019-04-14 13:00:00 26 15 Oeste 30 Sudoeste 0 -- -- 28
2019-04-14 12:00:00 23.9 12 Sudoeste 30 Oeste 0 -- -- 31
2019-04-14 11:00:00 21.2 8 Sudoeste 17 Sudoeste 0 -- -- 41
2019-04-14 10:00:00 18.5 4 Sur 13 Sur 0 -- -- 47
2019-04-14 09:00:00 14.3 2 Este 10 Sudoeste 0 -- -- 61
2019-04-14 08:00:00 10.2 3 Oeste 7 Oeste 0 -- -- 76
2019-04-14 07:00:00 8.9 0 Calma 4 Sudoeste 0 -- -- 81
2019-04-14 06:00:00 9.7 0 Calma 6 Oeste 0 -- -- 79
2019-04-14 05:00:00 11 2 Sudoeste 11 Oeste 0 -- -- 76
2019-04-14 04:00:00 11.2 4 Oeste 8 Oeste 0 -- -- 77
2019-04-14 03:00:00 11.3 4 Oeste 6 Oeste 0 -- -- 79
2019-04-14 02:00:00 12.4 0 Calma 6 Oeste 0 -- -- 78
2019-04-14 01:00:00 13.2 4 Oeste 8 Oeste 0 -- -- 73
2019-04-14 00:00:00 13.7 4 Nordeste 10 Este 0 -- -- 79
2019-04-13 23:00:00 14.7 8 Nordeste 17 Nordeste 0 -- -- 73
2019-04-13 22:00:00 15.8 10 Nordeste 20 Nordeste 0 -- -- 69
2019-04-13 21:00:00 17.1 11 Nordeste 23 Nordeste 0 -- -- 60
2019-04-13 20:00:00 20.4 10 Nordeste 20 Nordeste 0 -- -- 48
2019-04-13 19:00:00 23.8 12 Este 35 Noroeste 0 -- -- 34
2019-04-13 18:00:00 24.5 12 Este 24 Este 0 -- -- 33
2019-04-13 17:00:00 25.1 14 Este 28 Este 0 -- -- 28
2019-04-13 16:00:00 25.6 15 Noroeste 31 Sudoeste 0 -- -- 26
2019-04-13 15:00:00 24.9 12 Oeste 23 Sudoeste 0 -- -- 19
2019-04-13 14:00:00 24 10 Oeste 30 Oeste 0 -- -- 23
2019-04-13 13:00:00 23.3 13 Oeste 33 Oeste 0 -- -- 24
2019-04-13 12:00:00 21.7 14 Oeste 28 Oeste 0 -- -- 28
2019-04-13 11:00:00 19.2 14 Sudoeste 23 Sudoeste 0 -- -- 34
2019-04-13 10:00:00 16.2 9 Sudoeste 21 Sudoeste 0 -- -- 46
2019-04-13 09:00:00 12.4 5 Sudoeste 9 Sudoeste 0 -- -- 60
2019-04-13 08:00:00 8.7 3 Oeste 7 Oeste 0 -- -- 79
2019-04-13 07:00:00 9.2 4 Sudoeste 9 Sudoeste 0 -- -- 79
2019-04-13 06:00:00 9.7 3 Oeste 11 Oeste 0 -- -- 79
2019-04-13 05:00:00 10.8 8 Sudoeste 18 Sudoeste 0 -- -- 80
2019-04-13 04:00:00 11.1 6 Sudoeste 14 Sudoeste 0 -- -- 81
2019-04-13 03:00:00 11 8 Sudoeste 12 Sudoeste 0 -- -- 80
2019-04-13 02:00:00 11.7 3 Sudoeste 8 Sur 0 -- -- 77
2019-04-13 01:00:00 12.1 3 Oeste 5 Sudoeste 0 -- -- 80
2019-04-13 00:00:00 13.3 3 Sudoeste 10 Este 0 -- -- 75
2019-04-12 23:00:00 14.8 9 Este 21 Este 0 -- -- 71
2019-04-12 22:00:00 15.5 14 Nordeste 24 Nordeste 0 -- -- 73
2019-04-12 21:00:00 16.9 10 Nordeste 25 Nordeste 0 -- -- 65
2019-04-12 20:00:00 19.9 7 Nordeste 20 Nordeste 0 -- -- 49
2019-04-12 19:00:00 21 10 Este 24 Este 0 -- -- 39
2019-04-12 18:00:00 21.4 18 Este 33 Este 0 -- -- 33
2019-04-12 17:00:00 23.6 10 Noroeste 24 Noroeste 0 -- -- 20
2019-04-12 16:00:00 22.6 8 Noroeste 27 Norte 0 -- -- 24
2019-04-12 15:00:00 21.9 15 Oeste 32 Oeste 0 -- -- 24
2019-04-12 14:00:00 20.8 13 Oeste 26 Oeste 0 -- -- 26
2019-04-12 13:00:00 19.6 15 Oeste 35 Oeste 0 -- -- 28
2019-04-12 12:00:00 18 17 Oeste 40 Sudoeste 0 -- -- 33
2019-04-12 11:00:00 16.5 15 Oeste 38 Oeste 0 -- -- 39
2019-04-12 10:00:00 15.7 12 Oeste 25 Oeste 0 -- -- 42
2019-04-12 09:00:00 14 11 Oeste 25 Oeste 0 -- -- 47
2019-04-12 08:00:00 11 2 Este 13 Sudoeste 0 -- -- 57
2019-04-12 07:00:00 11.9 6 Sudoeste 23 Sudoeste 0 -- -- 53
2019-04-12 06:00:00 12 13 Sudoeste 27 Sudoeste 0 -- -- 53
2019-04-12 05:00:00 13.1 17 Sudoeste 26 Sudoeste 0 -- -- 48
2019-04-12 04:00:00 10.3 2 Oeste 13 Oeste 0 -- -- 63
2019-04-12 03:00:00 12.8 2 Sur 14 Sudoeste 0 -- -- 49
2019-04-12 02:00:00 13 3 Sudoeste 12 Sur 0 -- -- 49
2019-04-12 01:00:00 13.9 7 Sudoeste 12 Sudoeste 0 -- -- 46
2019-04-12 00:00:00 13.7 3 Norte 10 Sudoeste 0 -- -- 49
2019-04-11 23:00:00 15.2 4 Sudeste 10 Sudoeste 0 -- -- 51
2019-04-11 22:00:00 16.6 5 Sudeste 31 Norte 0 -- -- 53
2019-04-11 21:00:00 19.8 10 Oeste 31 Oeste 0 -- -- 28
2019-04-11 20:00:00 21.1 17 Oeste 36 Oeste 0 -- -- 26
2019-04-11 19:00:00 22.1 15 Oeste 36 Sudoeste 0 -- -- 26
2019-04-11 18:00:00 22.5 13 Oeste 36 Oeste 0 -- -- 26
2019-04-11 17:00:00 22.3 19 Oeste 31 Oeste 0 -- -- 27
2019-04-11 16:00:00 22.2 10 Oeste 28 Sudoeste 0 -- -- 26
2019-04-11 15:00:00 21.5 11 Oeste 29 Noroeste 0 -- -- 30
2019-04-11 14:00:00 20.3 6 Noroeste 31 Oeste 0 -- -- 35
2019-04-11 13:00:00 19.1 12 Oeste 39 Oeste 0 -- -- 36
2019-04-11 12:00:00 17.5 13 Oeste 30 Oeste 0 -- -- 41
2019-04-11 11:00:00 15.7 16 Oeste 29 Oeste 0 -- -- 45
2019-04-11 10:00:00 14.3 12 Oeste 27 Sudoeste 0 -- -- 53
2019-04-11 09:00:00 12.3 10 Oeste 26 Sudoeste 0 -- -- 61
2019-04-11 08:00:00 9.7 10 Sudoeste 16 Sudoeste 0 -- -- 72
2019-04-11 07:00:00 10.3 7 Oeste 19 Sudoeste 0 -- -- 69
2019-04-11 06:00:00 11.1 6 Sudoeste 21 Sudoeste 0 -- -- 65
2019-04-11 05:00:00 11.8 5 Sudoeste 20 Sudoeste 0 -- -- 63
2019-04-11 04:00:00 11.2 3 Oeste 24 Sudoeste 0 -- -- 66
2019-04-11 03:00:00 11.4 9 Sudoeste 27 Oeste 0 -- -- 66
2019-04-11 02:00:00 13.5 17 Oeste 32 Oeste 0 -- -- 56
2019-04-11 01:00:00 13.7 15 Oeste 35 Oeste 0 -- -- 57
2019-04-11 00:00:00 11.5 12 Sudoeste 39 Oeste 0 -- -- 71
2019-04-10 23:00:00 11.6 11 Sudoeste 18 Sudoeste 0 -- -- 73
2019-04-10 22:00:00 12.8 9 Oeste 22 Oeste 0 -- -- 68
2019-04-10 21:00:00 13.1 10 Oeste 20 Sudoeste 0.2 -- -- 67
2019-04-10 20:00:00 13 8 Oeste 30 Sudoeste 0 -- -- 69
2019-04-10 19:00:00 14.1 19 Oeste 62 Noroeste 0.4 -- -- 58
2019-04-10 18:00:00 16.1 32 Noroeste 54 Noroeste 0 -- -- 45
2019-04-10 17:00:00 19.6 7 Oeste 24 Norte 0 -- -- 39
2019-04-10 16:00:00 18.3 13 Noroeste 39 Noroeste 0 -- -- 38
2019-04-10 15:00:00 18.9 17 Oeste 41 Oeste 0 -- -- 32
2019-04-10 14:00:00 19.1 17 Noroeste 37 Oeste 0 -- -- 34
2019-04-10 13:00:00 18.1 18 Oeste 36 Oeste 0 -- -- 37
2019-04-10 12:00:00 17.7 17 Oeste 37 Oeste 0 -- -- 41
2019-04-10 11:00:00 16.8 18 Oeste 37 Oeste 0 -- -- 44
2019-04-10 10:00:00 15.3 10 Oeste 21 Sudoeste 0 -- -- 51
2019-04-10 09:00:00 11.5 8 Sudoeste 13 Sudoeste 0 -- -- 64
2019-04-10 08:00:00 9.5 0 Calma 9 Sudoeste 0 -- -- 71
2019-04-10 07:00:00 11.5 4 Sudoeste 16 Oeste 0 -- -- 64
2019-04-10 06:00:00 10.6 3 Sudoeste 15 Oeste 0 -- -- 67
2019-04-10 05:00:00 12.4 8 Oeste 17 Sudoeste 0 -- -- 60
2019-04-10 04:00:00 12.4 8 Oeste 18 Oeste 0 -- -- 60
2019-04-10 03:00:00 11.8 8 Sudoeste 13 Oeste 0 -- -- 62
2019-04-10 02:00:00 12.3 8 Oeste 14 Sudoeste 0 -- -- 61
2019-04-10 01:00:00 13 9 Sudoeste 18 Oeste 0 -- -- 60
2019-04-10 00:00:00 14.3 8 Oeste 18 Oeste 0 -- -- 55
2019-04-09 23:00:00 16 10 Oeste 27 Oeste 0 -- -- 47
2019-04-09 22:00:00 16.9 16 Oeste 30 Sudoeste 0 -- -- 43
2019-04-09 21:00:00 17.1 12 Oeste 28 Oeste 0 -- -- 43
2019-04-09 20:00:00 18.8 17 Oeste 53 Oeste 0 -- -- 36
2019-04-09 19:00:00 19.3 21 Oeste 49 Oeste 0 -- -- 38
2019-04-09 18:00:00 20.7 22 Sudoeste 36 Sudoeste 0 -- -- 30
2019-04-09 17:00:00 22.2 17 Oeste 36 Oeste 0 -- -- 25
2019-04-09 16:00:00 22 16 Oeste 32 Oeste 0 -- -- 29
2019-04-09 15:00:00 20.4 12 Oeste 27 Oeste 0 -- -- 31
2019-04-09 14:00:00 19.9 10 Oeste 27 Oeste 0 -- -- 33
2019-04-09 13:00:00 19.6 14 Oeste 28 Oeste 0 -- -- 36
2019-04-09 12:00:00 18.5 13 Oeste 32 Oeste 0 -- -- 39
2019-04-09 11:00:00 17.1 17 Oeste 34 Oeste 0 -- -- 42
2019-04-09 10:00:00 16.1 19 Oeste 35 Oeste 0 -- -- 44
2019-04-09 09:00:00 15.3 16 Oeste 37 Oeste 0 -- -- 47
2019-04-09 08:00:00 12 6 Sudoeste 18 Sudoeste 0 -- -- 68
2019-04-09 07:00:00 14.3 7 Oeste 43 Oeste 0 -- -- 57
2019-04-09 06:00:00 15.5 15 Oeste 37 Noroeste 0 -- -- 51
2019-04-09 05:00:00 13.2 10 Oeste 22 Oeste 0 -- -- 70
2019-04-09 04:00:00 13.7 13 Sudoeste 38 Noroeste 0 -- -- 68
2019-04-09 03:00:00 16.3 18 Oeste 60 Oeste 0 -- -- 48
2019-04-09 02:00:00 15 5 Sudoeste 17 Sudoeste 0 -- -- 66
2019-04-09 01:00:00 15 4 Sudoeste 14 Sudoeste 0 -- -- 70
2019-04-09 00:00:00 15.6 4 Sudoeste 8 Oeste 0 -- -- 72
2019-04-08 23:00:00 16.6 3 Sur 9 Sur 0 -- -- 69
2019-04-08 22:00:00 16.6 2 Oeste 8 Sudoeste 0 -- -- 68
2019-04-08 21:00:00 17.4 2 Norte 6 Sur 0 -- -- 66
2019-04-08 20:00:00 19.4 0 Calma 12 Noroeste 0 -- -- 54
2019-04-08 19:00:00 19.9 9 Noroeste 30 Oeste 0 -- -- 49
2019-04-08 18:00:00 22.8 9 Oeste 27 Oeste 0 -- -- 39
2019-04-08 17:00:00 23.5 9 Oeste 26 Sudoeste 0 -- -- 36
2019-04-08 16:00:00 22.2 12 Sudoeste 27 Sudoeste 0 -- -- 40
2019-04-08 15:00:00 21.4 13 Oeste 27 Sudoeste 0 -- -- 42
2019-04-08 14:00:00 20.4 14 Sudoeste 24 Sudoeste 0 -- -- 47
2019-04-08 13:00:00 18.5 10 Sudoeste 18 Sudoeste 0 -- -- 55
2019-04-08 12:00:00 17.1 6 Sudoeste 13 Sudoeste 0 -- -- 60
2019-04-08 11:00:00 15.1 5 Sudoeste 13 Sudoeste 0 -- -- 67
2019-04-08 10:00:00 13.5 5 Sudoeste 10 Sudoeste 0 -- -- 73
2019-04-08 09:00:00 12.6 0 Calma 5 Sudoeste 0 -- -- 78
2019-04-08 08:00:00 12.3 0 Calma 8 Oeste 0 -- -- 73
2019-04-08 07:00:00 12.7 3 Oeste 8 Oeste 0 -- -- 71
2019-04-08 06:00:00 13.4 3 Sudoeste 10 Sudoeste 0 -- -- 66
2019-04-08 05:00:00 12.8 3 Sur 6 Sudeste 0 -- -- 69
2019-04-08 04:00:00 12.7 0 Calma 4 Sur 0 -- -- 70
2019-04-08 03:00:00 13.4 0 Calma 3 Sudoeste 0 -- -- 65
2019-04-08 02:00:00 13.9 0 Calma 8 Sur 0 -- -- 61
2019-04-08 01:00:00 14.6 4 Sudoeste 9 Sudoeste 0 -- -- 59
2019-04-08 00:00:00 15.3 2 Sur 11 Sudeste 0 -- -- 53
2019-04-07 23:00:00 15.9 4 Oeste 16 Noroeste 0 -- -- 49
2019-04-07 22:00:00 17.4 11 Oeste 33 Oeste 0 -- -- 42
2019-04-07 21:00:00 18 15 Oeste 36 Oeste 0 -- -- 40
2019-04-07 20:00:00 18.7 16 Oeste 30 Oeste 0 -- -- 37
2019-04-07 19:00:00 19.1 16 Oeste 38 Sudoeste 0 -- -- 35
2019-04-07 18:00:00 20.2 20 Oeste 40 Oeste 0 -- -- 31
2019-04-07 17:00:00 20.1 19 Oeste 40 Oeste 0 -- -- 33
2019-04-07 16:00:00 18.7 15 Oeste 40 Sudoeste 0 -- -- 38
2019-04-07 15:00:00 18.7 18 Oeste 35 Sudoeste 0 -- -- 38
2019-04-07 14:00:00 17.5 19 Oeste 35 Oeste 0 -- -- 44
2019-04-07 13:00:00 16.1 23 Oeste 51 Oeste 0 -- -- 49
2019-04-07 12:00:00 15.2 23 Oeste 45 Oeste 0 -- -- 51
2019-04-07 11:00:00 12.6 15 Oeste 63 Oeste 0 -- -- 63
2019-04-07 10:00:00 11.6 25 Oeste 58 Sudoeste 0 -- -- 62
2019-04-07 09:00:00 10.8 17 Oeste 36 Noroeste 0 -- -- 67
2019-04-07 08:00:00 10.4 8 Noroeste 27 Oeste 0 -- -- 69
2019-04-07 07:00:00 10.9 5 Noroeste 26 Oeste 0 -- -- 63
2019-04-07 06:00:00 8.1 4 Sudoeste 12 Sudoeste 0 -- -- 73
2019-04-07 05:00:00 10.2 5 Sudoeste 15 Sudoeste 0 -- -- 61
2019-04-07 04:00:00 8.1 3 Oeste 9 Oeste 0 -- -- 71
2019-04-07 03:00:00 9.8 5 Sudoeste 13 Sudoeste 0 -- -- 63
2019-04-07 02:00:00 9.8 4 Oeste 13 Sudoeste 0 -- -- 64
2019-04-07 01:00:00 10.8 8 Sudoeste 16 Oeste 0 -- -- 62
2019-04-07 00:00:00 11.2 6 Sudoeste 16 Sudoeste 0 -- -- 63
2019-04-06 23:00:00 12.4 11 Sudoeste 21 Sudoeste 0 -- -- 55
2019-04-06 22:00:00 13.8 12 Oeste 33 Oeste 0 -- -- 47
2019-04-06 21:00:00 13.1 8 Sudoeste 16 Sudoeste 0 -- -- 56
2019-04-06 20:00:00 14.2 9 Oeste 17 Oeste 0 -- -- 54
2019-04-06 19:00:00 14.3 4 Sur 13 Norte 0 -- -- 64
2019-04-06 18:00:00 13.4 4 Este 45 Oeste 3.2 -- -- 73
2019-04-06 17:00:00 17.5 5 Sudoeste 21 Sudoeste 0 -- -- 43
2019-04-06 16:00:00 16.6 8 Sudoeste 24 Oeste 0.6 -- -- 51
2019-04-06 15:00:00 14.2 22 Sudoeste 48 Sudoeste 2.2 -- -- 57
2019-04-06 14:00:00 18.1 4 Sur 13 Sudeste 0 -- -- 35
2019-04-06 13:00:00 17 6 Sudoeste 19 Oeste 0 -- -- 38
2019-04-06 12:00:00 15.7 3 Sur 12 Sudeste 0 -- -- 42
2019-04-06 11:00:00 13.8 3 Sudoeste 12 Oeste 0 -- -- 47
2019-04-06 10:00:00 11 5 Oeste 9 Sudoeste 0 -- -- 67
2019-04-06 09:00:00 8.4 0 Calma 5 Sudoeste 0 -- -- 74
2019-04-06 08:00:00 6.7 0 Calma 9 Sur 0 -- -- 81
2019-04-06 07:00:00 6.5 2 Noroeste 8 Sudeste 0 -- -- 80
2019-04-06 06:00:00 7.1 2 Sudoeste 7 Sudoeste 0 -- -- 81
2019-04-06 05:00:00 7.4 3 Oeste 9 Sudoeste 0 -- -- 82
2019-04-06 04:00:00 7.6 4 Sudoeste 6 Sudoeste 0 -- -- 80
2019-04-06 03:00:00 8.2 2 Sur 9 Sudeste 0 -- -- 77
2019-04-06 02:00:00 8.8 3 Sudoeste 8 Oeste 0 -- -- 71
2019-04-06 01:00:00 9.8 2 Sur 24 Oeste 0 -- -- 64
2019-04-06 00:00:00 10.9 10 Oeste 26 Oeste 0 -- -- 57
2019-04-05 23:00:00 10.8 7 Oeste 23 Oeste 0 -- -- 63
2019-04-05 22:00:00 11.8 14 Oeste 48 Oeste 0 -- -- 59
2019-04-05 21:00:00 13.3 14 Noroeste 28 Noroeste 0 -- -- 70
2019-04-05 20:00:00 13.4 2 Nordeste 6 Este 0 -- -- 71
2019-04-05 19:00:00 13.1 3 Noroeste 10 Oeste 0.2 -- -- 76
2019-04-05 18:00:00 13 4 Este 25 Sudoeste 0 -- -- 78
2019-04-05 17:00:00 12.8 11 Sudoeste 40 Oeste 1.2 -- -- 80
2019-04-05 16:00:00 16.9 20 Oeste 46 Sudoeste 0 -- -- 56
2019-04-05 15:00:00 20.5 11 Sur 32 Sudeste 0 -- -- 37
2019-04-05 14:00:00 19.8 9 Sudeste 25 Sur 0 -- -- 40
2019-04-05 13:00:00 19 3 Sudoeste 14 Sudeste 0 -- -- 41
2019-04-05 12:00:00 17.4 4 Sudeste 11 Oeste 0 -- -- 49
2019-04-05 11:00:00 15.6 6 Oeste 13 Sudoeste 0 -- -- 63
2019-04-05 10:00:00 13.4 6 Sudoeste 11 Sudoeste 0 -- -- 73
2019-04-05 09:00:00 11.4 2 Sudoeste 5 Sudoeste 0 -- -- 81
2019-04-05 08:00:00 10.2 2 Sudoeste 4 Oeste 0 -- -- 85
2019-04-05 07:00:00 10.9 3 Sudeste 5 Sudeste 0 -- -- 82
2019-04-05 06:00:00 10.7 3 Este 5 Este 0 -- -- 82
2019-04-05 05:00:00 11.1 2 Nordeste 5 Nordeste 0 -- -- 78
2019-04-05 04:00:00 10.8 3 Nordeste 5 Este 0 -- -- 80
2019-04-05 03:00:00 11.9 2 Este 4 Este 0 -- -- 75
2019-04-05 02:00:00 12.8 2 Nordeste 3 Nordeste 0 -- -- 71
2019-04-05 01:00:00 13.9 2 Este 5 Este 0 -- -- 67
2019-04-05 00:00:00 14.1 2 Este 6 Este 0 -- -- 64
2019-04-04 23:00:00 14.1 2 Este 6 Sudeste 0 -- -- 61
2019-04-04 22:00:00 14.6 3 Sudeste 13 Sudeste 0 -- -- 58
2019-04-04 21:00:00 15.2 6 Sudeste 18 Este 0 -- -- 54
2019-04-04 20:00:00 15.7 10 Sudeste 26 Sudeste 0 -- -- 54
2019-04-04 19:00:00 17.3 11 Sudeste 25 Sudeste 0 -- -- 48
2019-04-04 18:00:00 18.5 9 Sudeste 27 Este 0 -- -- 44
2019-04-04 17:00:00 18.9 9 Sudeste 22 Este 0 -- -- 44
2019-04-04 16:00:00 18.9 10 Sudeste 31 Sudeste 0 -- -- 43
2019-04-04 15:00:00 18.9 10 Sudeste 31 Sudeste 0 -- -- 46
2019-04-04 14:00:00 19.1 5 Sudoeste 18 Sudoeste 0 -- -- 37
2019-04-04 13:00:00 17.8 7 Sur 16 Sudoeste 0 -- -- 34
2019-04-04 12:00:00 16.6 6 Sur 17 Sudoeste 0 -- -- 48
2019-04-04 11:00:00 15.3 6 Sudoeste 17 Sudoeste 0 -- -- 58
2019-04-04 10:00:00 13.7 9 Oeste 14 Oeste 0 -- -- 65
2019-04-04 09:00:00 10.8 4 Sudoeste 8 Sudoeste 0 -- -- 85
2019-04-04 08:00:00 9.3 2 Sudoeste 6 Este 0 -- -- 86
2019-04-04 07:00:00 10.2 0 Calma 5 Norte 0 -- -- 85
2019-04-04 06:00:00 10.4 0 Calma 3 Sudeste 0 -- -- 85
2019-04-04 05:00:00 11.5 0 Calma 7 Este 0 -- -- 81
2019-04-04 04:00:00 12.7 6 Nordeste 16 Este 0 -- -- 80
2019-04-04 03:00:00 13.6 4 Nordeste 28 Este 0 -- -- 80
2019-04-04 02:00:00 17.6 6 Sudoeste 28 Oeste 0 -- -- 45
2019-04-04 01:00:00 18.6 15 Noroeste 29 Noroeste 0 -- -- 36
2019-04-04 00:00:00 14 3 Sur 8 Este 0 -- -- 77
2019-04-03 23:00:00 14.9 0 Calma 6 Oeste 0 -- -- 74
2019-04-03 22:00:00 16.5 4 Este 5 Nordeste 0 -- -- 67
2019-04-03 21:00:00 18.7 0 Calma 7 Sudeste 0 -- -- 59
2019-04-03 20:00:00 20.9 3 Oeste 19 Sur 0 -- -- 50
2019-04-03 19:00:00 22.1 9 Sudeste 24 Sur 0 -- -- 46
2019-04-03 18:00:00 23.7 8 Sur 23 Sudeste 0 -- -- 40
2019-04-03 17:00:00 24.6 6 Sudoeste 23 Sudeste 0 -- -- 36
2019-04-03 16:00:00 24.1 13 Sudeste 27 Sudeste 0 -- -- 42
2019-04-03 15:00:00 24.1 9 Sudeste 28 Sudeste 0 -- -- 38
2019-04-03 14:00:00 23.3 4 Oeste 23 Oeste 0 -- -- 36
2019-04-03 13:00:00 22.3 9 Sudoeste 17 Sudoeste 0 -- -- 38
2019-04-03 12:00:00 19.5 8 Sudoeste 16 Sudoeste 0 -- -- 52
2019-04-03 11:00:00 16.9 10 Sudoeste 19 Oeste 0 -- -- 62
2019-04-03 10:00:00 14.3 8 Sudoeste 14 Sudoeste 0 -- -- 77
2019-04-03 09:00:00 11.7 3 Oeste 9 Sudoeste 0 -- -- 90
2019-04-03 08:00:00 10.2 3 Oeste 8 Noroeste 0 -- -- 91
2019-04-03 07:00:00 11 4 Sudoeste 8 Oeste 0 -- -- 91
2019-04-03 06:00:00 11.2 3 Oeste 7 Sudoeste 0 -- -- 91
2019-04-03 05:00:00 11.3 0 Calma 7 Sudoeste 0 -- -- 89
2019-04-03 04:00:00 12.3 5 Sudoeste 9 Sudoeste 0 -- -- 90
2019-04-03 03:00:00 12.5 0 Calma 5 Noroeste 0 -- -- 86
2019-04-03 02:00:00 13.8 0 Calma 8 Nordeste 0 -- -- 85
2019-04-03 01:00:00 14.3 6 Nordeste 14 Nordeste 0 -- -- 86
2019-04-03 00:00:00 15.1 5 Este 16 Este 0 -- -- 84
2019-04-02 23:00:00 16.1 5 Este 15 Nordeste 0 -- -- 73
2019-04-02 22:00:00 16.4 0 Calma 5 Sudeste 0 -- -- 70
2019-04-02 21:00:00 18.4 0 Calma 9 Sudoeste 0 -- -- 61
2019-04-02 20:00:00 20.3 6 Sur 16 Sudeste 0 -- -- 58
2019-04-02 19:00:00 22.7 4 Sur 15 Sudoeste 0 -- -- 48
2019-04-02 18:00:00 22.8 5 Sur 19 Sudeste 0 -- -- 47
2019-04-02 17:00:00 23.3 5 Sudoeste 19 Sudoeste 0 -- -- 37
2019-04-02 16:00:00 23.3 6 Sudoeste 22 Sudoeste 0 -- -- 38
2019-04-02 15:00:00 22.5 7 Sudoeste 21 Sudoeste 0 -- -- 43
2019-04-02 14:00:00 21.2 9 Sudoeste 22 Oeste 0 -- -- 50
2019-04-02 13:00:00 19.2 7 Sudoeste 19 Oeste 0 -- -- 60
2019-04-02 12:00:00 17.4 10 Sudoeste 15 Sudoeste 0 -- -- 67
2019-04-02 11:00:00 15.8 8 Oeste 19 Oeste 0 -- -- 77
2019-04-02 10:00:00 14.3 6 Sudoeste 12 Sudoeste 0 -- -- 86
2019-04-02 09:00:00 13.2 5 Sudoeste 9 Sudoeste 0 -- -- 92
2019-04-02 08:00:00 12.4 2 Sur 5 Oeste 0 -- -- 92
2019-04-02 07:00:00 12.5 0 Calma 4 Sudoeste 0 -- -- 91
2019-04-02 06:00:00 12.7 3 Sudoeste 8 Sudoeste 0 -- -- 91
2019-04-02 05:00:00 13.4 2 Sudoeste 4 Sudoeste 0 -- -- 89
2019-04-02 04:00:00 13.8 0 Calma 2 Sudeste 0 -- -- 89
2019-04-02 03:00:00 14 0 Calma 4 Este 0 -- -- 87
2019-04-02 02:00:00 14.2 2 Sudeste 2 Sudeste 0 -- -- 86
2019-04-02 01:00:00 14.3 0 Calma 5 Nordeste 0 -- -- 86
2019-04-02 00:00:00 14.6 4 Nordeste 6 Nordeste 0 -- -- 85
2019-04-01 23:00:00 14.7 4 Nordeste 8 Nordeste 0 -- -- 84
2019-04-01 22:00:00 14.9 5 Este 9 Nordeste 0 -- -- 82
2019-04-01 21:00:00 15.4 5 Este 16 Este 0 -- -- 77
2019-04-01 20:00:00 15.9 10 Este 18 Este 0 -- -- 72
2019-04-01 19:00:00 17 10 Este 22 Este 0 -- -- 67
2019-04-01 18:00:00 17.1 5 Sudeste 21 Este 0.2 -- -- 69
2019-04-01 17:00:00 17.5 11 Este 27 Este 0 -- -- 66
2019-04-01 16:00:00 18.3 13 Sudeste 26 Sudeste 0 -- -- 66
2019-04-01 15:00:00 18.5 16 Este 25 Este 0 -- -- 67
2019-04-01 14:00:00 17.9 8 Este 17 Este 0 -- -- 70
2019-04-01 13:00:00 16.8 3 Nordeste 8 Sudeste 0 -- -- 75
2019-04-01 12:00:00 15.5 2 Sudoeste 8 Sudoeste 0 -- -- 79
2019-04-01 11:00:00 14.5 4 Sudoeste 14 Sudoeste 0 -- -- 88
2019-04-01 10:00:00 13.7 5 Oeste 9 Sudoeste 0 -- -- 93
2019-04-01 09:00:00 12.9 0 Calma 3 Oeste 0 -- -- 93
2019-04-01 08:00:00 12.6 0 Calma 4 Nordeste 0 -- -- 93
2019-04-01 07:00:00 12.6 0 Calma 4 Este 0 -- -- 93
2019-04-01 06:00:00 12.7 0 Calma 6 Sudoeste 0 -- -- 93
2019-04-01 05:00:00 12.7 6 Sudoeste 9 Sudoeste 0 -- -- 92
2019-04-01 04:00:00 12.9 0 Calma 15 Este 0 -- -- 92
2019-04-01 03:00:00 13 4 Este 13 Este 0 -- -- 92
2019-04-01 02:00:00 13.1 0 Calma 4 Sudoeste 0 -- -- 93
2019-04-01 01:00:00 13 2 Sudoeste 8 Sudoeste 0 -- -- 93
2019-04-01 00:00:00 12.9 0 Calma 3 Este 0.2 -- -- 93
2019-03-31 23:00:00 12.8 0 Calma 4 Sudoeste 0 -- -- 93
2019-03-31 22:00:00 12.8 2 Oeste 5 Sudoeste 0 -- -- 93
2019-03-31 21:00:00 12.9 3 Sudoeste 6 Sudoeste 0 -- -- 93
2019-03-31 20:00:00 13.1 2 Sudoeste 7 Sur 0 -- -- 92
2019-03-31 19:00:00 13.2 3 Sudoeste 10 Sudoeste 0.4 -- -- 93
2019-03-31 18:00:00 13 5 Sudoeste 10 Sudoeste 1.2 -- -- 93
2019-03-31 17:00:00 12.6 5 Sudoeste 10 Sudoeste 1.8 -- -- 93
2019-03-31 16:00:00 12.5 3 Sudoeste 10 Sudoeste 3.2 -- -- 93
2019-03-31 15:00:00 12.2 5 Sudoeste 10 Sudoeste 0.6 -- -- 92
2019-03-31 14:00:00 11.7 5 Sudoeste 14 Sudoeste 0.6 -- -- 92
2019-03-31 13:00:00 11.4 9 Sudoeste 17 Sudoeste 0.4 -- -- 92
2019-03-31 12:00:00 11 11 Sudoeste 19 Sudoeste 2.6 -- -- 92
2019-03-31 11:00:00 10.7 14 Sudoeste 25 Sudoeste 2 -- -- 91
2019-03-31 10:00:00 10.7 15 Sudoeste 22 Sudoeste 0.8 -- -- 90
2019-03-31 09:00:00 11.1 0 Calma 10 Sudoeste 0.4 -- -- 90
2019-03-31 08:00:00 11.1 6 Sudoeste 10 Sudoeste 0.6 -- -- 88
2019-03-31 07:00:00 11.7 0 Calma 4 Sur 0.8 -- -- 88
2019-03-31 06:00:00 11.9 0 Calma 6 Sudoeste 0.2 -- -- 84
2019-03-31 05:00:00 12.3 0 Calma 8 Oeste 0.2 -- -- 82
2019-03-31 03:00:00 12.3 0 Calma 5 Noroeste 0 -- -- 75
2019-03-31 01:00:00 11.8 0 Calma 2 Sudoeste 0 -- -- 79
2019-03-31 00:00:00 12.6 0 Calma 7 Noroeste 0 -- -- 75
2019-03-30 23:00:00 12.2 0 Calma 9 Sudeste 0 -- -- 77
2019-03-30 22:00:00 13.1 8 Este 15 Este 0 -- -- 74
2019-03-30 21:00:00 13.1 6 Este 12 Este 0 -- -- 72
2019-03-30 20:00:00 13.9 10 Este 25 Este 0 -- -- 68
2019-03-30 19:00:00 14.7 17 Nordeste 29 Este 0 -- -- 64
2019-03-30 18:00:00 15.7 15 Este 30 Este 0 -- -- 60
2019-03-30 17:00:00 17 17 Este 35 Este 0 -- -- 55
2019-03-30 16:00:00 17.5 18 Este 31 Este 0 -- -- 52
2019-03-30 15:00:00 17.9 18 Este 35 Este 0 -- -- 48
2019-03-30 14:00:00 18 15 Nordeste 32 Este 0 -- -- 47
2019-03-30 13:00:00 17.6 17 Este 36 Este 0 -- -- 51
2019-03-30 12:00:00 16.4 10 Nordeste 23 Este 0 -- -- 52
2019-03-30 11:00:00 15.9 14 Este 23 Este 0 -- -- 55
2019-03-30 10:00:00 13.1 4 Sudoeste 14 Sudoeste 0 -- -- 63
2019-03-30 09:00:00 10.3 4 Sudoeste 8 Sudoeste 0 -- -- 74
2019-03-30 08:00:00 7.9 2 Oeste 4 Sudoeste 0 -- -- 84
2019-03-30 07:00:00 7 0 Calma 6 Oeste 0 -- -- 85
2019-03-30 06:00:00 6.9 3 Sudoeste 7 Sudoeste 0 -- -- 86
2019-03-30 05:00:00 6.2 2 Oeste 3 Oeste 0 -- -- 87
2019-03-30 04:00:00 7 0 Calma 5 Oeste 0 -- -- 84
2019-03-30 03:00:00 7.7 2 Sudoeste 4 Sudoeste 0 -- -- 85
2019-03-30 02:00:00 7.7 0 Calma 4 Sudoeste 0 -- -- 81
2019-03-30 01:00:00 8.5 0 Calma 9 Sudoeste 0 -- -- 82
2019-03-30 00:00:00 9.7 2 Sur 5 Sur 0 -- -- 79
2019-03-29 23:00:00 10 0 Calma 5 Sudeste 0 -- -- 78
2019-03-29 22:00:00 11.6 4 Este 10 Nordeste 0 -- -- 75
2019-03-29 21:00:00 12.6 7 Nordeste 12 Nordeste 0 -- -- 71
2019-03-29 20:00:00 13.2 6 Este 24 Este 0 -- -- 65
2019-03-29 19:00:00 14.7 15 Este 30 Nordeste 0 -- -- 58
2019-03-29 18:00:00 15.7 16 Este 31 Este 0 -- -- 53
2019-03-29 17:00:00 16.1 19 Este 32 Este 0 -- -- 53
2019-03-29 16:00:00 17.1 20 Este 33 Este 0 -- -- 47
2019-03-29 15:00:00 17 19 Este 33 Este 0 -- -- 49
2019-03-29 14:00:00 16.9 17 Este 32 Este 0 -- -- 50
2019-03-29 13:00:00 16.8 18 Este 38 Este 0 -- -- 54
2019-03-29 12:00:00 16.2 20 Este 32 Este 0 -- -- 56
2019-03-29 11:00:00 14.8 3 Sudoeste 9 Oeste 0 -- -- 58
2019-03-29 10:00:00 13.2 3 Sudoeste 8 Sudoeste 0 -- -- 59
2019-03-29 09:00:00 10.3 6 Sudoeste 10 Sudoeste 0 -- -- 68
2019-03-29 08:00:00 8 4 Sur 10 Sudoeste 0 -- -- 79
2019-03-29 07:00:00 5.8 3 Oeste 6 Oeste 0 -- -- 85
2019-03-29 06:00:00 6.1 3 Sudoeste 5 Oeste 0 -- -- 84
2019-03-29 05:00:00 6.6 0 Calma 8 Sudoeste 0 -- -- 80
2019-03-29 04:00:00 7.9 3 Sudoeste 9 Sudoeste 0 -- -- 80
2019-03-29 03:00:00 7.9 3 Sudoeste 7 Sudoeste 0 -- -- 86
2019-03-29 02:00:00 8.5 2 Sudoeste 6 Oeste 0 -- -- 85
2019-03-29 01:00:00 8.7 3 Sudoeste 8 Sudoeste 0 -- -- 84
2019-03-29 00:00:00 8.4 0 Calma 4 Sudoeste 0 -- -- 83
2019-03-28 23:00:00 10.2 0 Calma 6 Sudeste 0 -- -- 80
2019-03-28 22:00:00 11.5 4 Sudeste 6 Sudeste 0 -- -- 77
2019-03-28 21:00:00 12.2 3 Este 13 Este 0 -- -- 73
2019-03-28 20:00:00 13.5 7 Este 20 Nordeste 0 -- -- 67
2019-03-28 19:00:00 15.2 12 Este 27 Este 0 -- -- 58
2019-03-28 18:00:00 16.7 14 Este 27 Nordeste 0 -- -- 49
2019-03-28 17:00:00 17.3 17 Nordeste 29 Este 0 -- -- 42
2019-03-28 16:00:00 17.9 17 Este 33 Este 0 -- -- 34
2019-03-28 15:00:00 18.5 18 Este 31 Este 0 -- -- 34
2019-03-28 14:00:00 18.8 15 Este 33 Este 0 -- -- 27
2019-03-28 13:00:00 19.1 15 Este 33 Sudeste 0 -- -- 23
2019-03-28 12:00:00 17.4 4 Norte 12 Nordeste 0 -- -- 29
2019-03-28 11:00:00 15 6 Oeste 15 Sudoeste 0 -- -- 39
2019-03-28 10:00:00 12.1 10 Sudoeste 14 Sudoeste 0 -- -- 47
2019-03-28 09:00:00 9.8 8 Sudoeste 14 Sudoeste 0 -- -- 57
2019-03-28 08:00:00 6.1 3 Sudoeste 11 Sudoeste 0 -- -- 73
2019-03-28 07:00:00 3.4 0 Calma 10 Sudoeste 0 -- -- 83
2019-03-28 06:00:00 4.2 4 Sudoeste 8 Sudoeste 0 -- -- 84
2019-03-28 05:00:00 3.9 0 Calma 7 Sudoeste 0 -- -- 83
2019-03-28 04:00:00 4.5 0 Calma 3 Sudeste 0 -- -- 83
2019-03-28 03:00:00 5.3 0 Calma 4 Sudoeste 0 -- -- 83
2019-03-28 02:00:00 5.8 0 Calma 5 Sudoeste 0 -- -- 78
2019-03-28 01:00:00 6.6 0 Calma 7 Sudoeste 0 -- -- 77
2019-03-28 00:00:00 8.1 2 Sudoeste 9 Sudoeste 0 -- -- 69
2019-03-27 23:00:00 10.1 3 Sur 8 Sudeste 0 -- -- 66
2019-03-27 22:00:00 10.2 5 Nordeste 8 Nordeste 0 -- -- 70
2019-03-27 21:00:00 11 0 Calma 7 Nordeste 0 -- -- 62
2019-03-27 20:00:00 13 5 Este 24 Este 0 -- -- 53
2019-03-27 19:00:00 14.9 13 Este 33 Nordeste 0 -- -- 43
2019-03-27 18:00:00 16.2 21 Este 34 Nordeste 0 -- -- 43
2019-03-27 17:00:00 17.2 20 Este 34 Este 0 -- -- 39
2019-03-27 16:00:00 17.7 20 Este 35 Este 0 -- -- 37
2019-03-27 15:00:00 18.2 18 Este 35 Este 0 -- -- 35
2019-03-27 14:00:00 18.2 18 Este 42 Este 0 -- -- 30
2019-03-27 13:00:00 17.9 17 Este 43 Este 0 -- -- 33
2019-03-27 12:00:00 17.3 21 Este 39 Este 0 -- -- 37
2019-03-27 11:00:00 16.6 15 Nordeste 26 Nordeste 0 -- -- 44
2019-03-27 10:00:00 12.6 6 Oeste 13 Sudoeste 0 -- -- 53
2019-03-27 09:00:00 9.7 8 Sudoeste 14 Sudoeste 0 -- -- 65
2019-03-27 08:00:00 6.8 4 Oeste 11 Sudoeste 0 -- -- 78
2019-03-27 07:00:00 6 4 Oeste 8 Sudoeste 0 -- -- 80
2019-03-27 06:00:00 5.5 0 Calma 4 Sudoeste 0 -- -- 82
2019-03-27 05:00:00 6.3 0 Calma 6 Sur 0 -- -- 78
2019-03-27 04:00:00 8.7 3 Sur 9 Sudoeste 0 -- -- 69
2019-03-27 03:00:00 10.5 3 Sudeste 18 Nordeste 0 -- -- 60
2019-03-27 02:00:00 11.1 7 Nordeste 18 Nordeste 0 -- -- 57
2019-03-27 01:00:00 10.7 4 Este 13 Este 0 -- -- 64
2019-03-27 00:00:00 12.4 6 Nordeste 30 Este 0 -- -- 58
2019-03-26 23:00:00 13 10 Nordeste 30 Este 0 -- -- 65
2019-03-26 22:00:00 13.1 14 Nordeste 26 Nordeste 0 -- -- 67
2019-03-26 21:00:00 12.4 4 Este 8 Este 0 -- -- 61
2019-03-26 20:00:00 13.4 5 Este 24 Este 0 -- -- 56
2019-03-26 19:00:00 14.9 13 Este 33 Este 0 -- -- 57
2019-03-26 18:00:00 15.9 18 Este 37 Este 0 -- -- 59
2019-03-26 17:00:00 16.6 20 Este 37 Este 0 -- -- 55
2019-03-26 16:00:00 17.7 20 Este 40 Este 0 -- -- 57
2019-03-26 15:00:00 18 20 Este 39 Nordeste 0 -- -- 59
2019-03-26 14:00:00 18.6 22 Este 46 Nordeste 0 -- -- 51
2019-03-26 13:00:00 18.7 24 Este 50 Este 0 -- -- 50
2019-03-26 12:00:00 18.4 27 Este 48 Nordeste 0 -- -- 53
2019-03-26 11:00:00 17.5 13 Nordeste 28 Este 0 -- -- 57
2019-03-26 10:00:00 13.4 3 Noroeste 12 Sudoeste 0 -- -- 54
2019-03-26 09:00:00 9.4 5 Oeste 9 Oeste 0 -- -- 67
2019-03-26 08:00:00 6.4 3 Oeste 5 Sudoeste 0 -- -- 79
2019-03-26 07:00:00 4.7 0 Calma 5 Oeste 0 -- -- 84
2019-03-26 06:00:00 4.8 3 Sudoeste 4 Oeste 0 -- -- 84
2019-03-26 05:00:00 5.2 0 Calma 6 Sudoeste 0 -- -- 83
2019-03-26 04:00:00 7 2 Sur 5 Sudoeste 0 -- -- 77
2019-03-26 03:00:00 6.8 0 Calma 3 Sudoeste 0 -- -- 80
2019-03-26 02:00:00 6.9 2 Sudoeste 4 Sudoeste 0 -- -- 81
2019-03-26 01:00:00 9 2 Sudoeste 10 Sudoeste 0 -- -- 75
2019-03-26 00:00:00 9.3 3 Sudoeste 4 Sudoeste 0 -- -- 79
2019-03-25 23:00:00 10.7 2 Oeste 4 Sudoeste 0 -- -- 78
2019-03-25 22:00:00 11.9 0 Calma 4 Nordeste 0 -- -- 73
2019-03-25 21:00:00 14.1 4 Este 10 Nordeste 0 -- -- 64
2019-03-25 20:00:00 15.6 6 Nordeste 11 Nordeste 0 -- -- 53
2019-03-25 19:00:00 18 8 Este 22 Este 0 -- -- 43
2019-03-25 18:00:00 19.6 13 Este 28 Sudeste 0 -- -- 35
2019-03-25 17:00:00 21.3 18 Este 28 Este 0 -- -- 33
2019-03-25 16:00:00 22.4 19 Este 28 Este 0 -- -- 28
2019-03-25 15:00:00 22.8 13 Este 23 Nordeste 0 -- -- 26
2019-03-25 14:00:00 22.3 11 Nordeste 23 Este 0 -- -- 32
2019-03-25 13:00:00 21.2 7 Nordeste 17 Este 0 -- -- 36
2019-03-25 12:00:00 19.9 7 Este 13 Este 0 -- -- 36
2019-03-25 11:00:00 17.5 3 Noroeste 12 Sudoeste 0 -- -- 41
2019-03-25 10:00:00 14.5 6 Sudoeste 14 Oeste 0 -- -- 48
2019-03-25 09:00:00 10.8 5 Sudoeste 9 Sudoeste 0 -- -- 66
2019-03-25 08:00:00 7.4 3 Oeste 5 Oeste 0 -- -- 78
2019-03-25 07:00:00 6.2 0 Calma 4 Sudeste 0 -- -- 82
2019-03-25 06:00:00 7.3 0 Calma 7 Sudoeste 0 -- -- 77
2019-03-25 05:00:00 7.4 3 Sudoeste 4 Sudoeste 0 -- -- 79
2019-03-25 04:00:00 6.8 0 Calma 3 Noroeste 0 -- -- 81
2019-03-25 03:00:00 7.7 2 Oeste 3 Oeste 0 -- -- 79
2019-03-25 02:00:00 7.7 2 Oeste 6 Sudoeste 0 -- -- 79
2019-03-25 01:00:00 8.6 0 Calma 6 Sudeste 0 -- -- 76
2019-03-25 00:00:00 9.9 3 Oeste 5 Oeste 0 -- -- 72